Time;durP1;ratioP1;P1;durP2;ratioP2;P2;SDS_P1;SDS_P2;PMS_P1;PMS_P2;Temp;Humidity;BMP_temperature;BMP_pressure;BME280_temperature;BME280_humidity;BME280_pressure;Samples;Min_cycle;Max_cycle;Signal;HPM_P1;HPM_P2
2023/07/16 00:02:03;;;;;;;2.28;1.73;;;28.60;49.30;;;;;;4982559;28;20024;-64
2023/07/16 00:04:30;;;;;;;2.28;1.60;;;28.60;49.30;;;;;;4982226;28;20115;-64
2023/07/16 00:06:55;;;;;;;2.03;1.52;;;28.60;49.30;;;;;;4981182;28;20443;-64
2023/07/16 00:09:21;;;;;;;2.00;1.52;;;28.60;49.30;;;;;;4980022;28;20085;-64
2023/07/16 00:11:46;;;;;;;2.10;1.60;;;28.60;49.30;;;;;;4981292;28;20391;-64
2023/07/16 00:14:12;;;;;;;2.22;1.50;;;28.60;49.30;;;;;;4980102;28;20029;-64
2023/07/16 00:16:38;;;;;;;1.90;1.50;;;28.60;49.30;;;;;;4986047;28;20072;-64
2023/07/16 00:19:03;;;;;;;1.92;1.60;;;28.60;49.30;;;;;;4982326;28;20061;-64
2023/07/16 00:21:29;;;;;;;2.03;1.52;;;28.60;49.30;;;;;;4981151;28;20481;-65
2023/07/16 00:23:55;;;;;;;2.08;1.60;;;28.60;49.30;;;;;;4982758;28;20133;-64
2023/07/16 00:26:21;;;;;;;2.35;1.70;;;28.60;49.30;;;;;;4981056;28;20023;-64
2023/07/16 00:28:47;;;;;;;2.05;1.60;;;28.60;49.30;;;;;;4971264;28;20027;-64
2023/07/16 00:31:14;;;;;;;2.22;1.65;;;28.60;49.30;;;;;;4979672;28;20034;-64
2023/07/16 00:33:39;;;;;;;2.25;1.48;;;28.60;49.90;;;;;;4980247;28;20065;-64
2023/07/16 00:36:05;;;;;;;1.88;1.40;;;28.60;49.30;;;;;;4980499;28;20412;-64
2023/07/16 00:38:31;;;;;;;1.95;1.58;;;28.60;49.30;;;;;;4980877;28;20475;-63
2023/07/16 00:40:57;;;;;;;2.25;1.60;;;28.60;49.30;;;;;;4978156;28;20395;-64
2023/07/16 00:43:22;;;;;;;2.05;1.60;;;28.60;49.30;;;;;;4978500;28;20062;-64
2023/07/16 00:45:49;;;;;;;1.95;1.40;;;28.60;49.40;;;;;;4964371;28;20042;-64
2023/07/16 00:48:14;;;;;;;2.20;1.60;;;28.60;49.30;;;;;;4966596;28;20472;-63
2023/07/16 00:50:41;;;;;;;2.00;1.50;;;28.60;49.40;;;;;;4966798;28;20137;-63
2023/07/16 00:53:10;;;;;;;2.25;1.60;;;28.60;49.40;;;;;;4978968;28;20058;-63
2023/07/16 00:55:36;;;;;;;2.95;1.50;;;28.50;49.30;;;;;;4976631;28;20062;-63
2023/07/16 00:58:06;;;;;;;1.98;1.40;;;28.50;49.30;;;;;;4977243;28;20483;-64
2023/07/16 01:00:33;;;;;;;1.75;1.40;;;28.60;49.40;;;;;;4980228;28;20451;-63
2023/07/16 01:03:04;;;;;;;2.42;1.60;;;28.50;49.40;;;;;;4980555;28;20137;-63
2023/07/16 01:05:50;;;;;;;2.08;1.60;;;28.50;49.30;;;;;;4981567;28;20085;-64
2023/07/16 01:08:24;;;;;;;2.25;1.60;;;28.60;49.40;;;;;;4963934;28;20495;-64
2023/07/16 01:10:50;;;;;;;2.00;1.48;;;28.50;49.30;;;;;;4978420;28;20081;-65
2023/07/16 01:13:16;;;;;;;1.80;1.35;;;28.50;49.30;;;;;;4976651;28;20050;-64
2023/07/16 01:15:41;;;;;;;2.30;1.60;;;28.60;49.40;;;;;;4977906;28;20387;-63
2023/07/16 01:18:07;;;;;;;1.85;1.45;;;28.50;49.40;;;;;;4979542;28;20037;-63
2023/07/16 01:20:33;;;;;;;1.83;1.50;;;28.50;49.40;;;;;;4977307;28;20023;-64
2023/07/16 01:23:10;;;;;;;1.95;1.40;;;28.50;49.40;;;;;;4979554;28;20034;-63
2023/07/16 01:25:49;;;;;;;2.13;1.60;;;28.50;49.40;;;;;;4979732;28;20467;-64
2023/07/16 01:28:48;;;;;;;2.33;1.65;;;28.50;49.40;;;;;;4979413;28;20483;-63
2023/07/16 01:31:16;;;;;;;2.10;1.65;;;28.50;49.50;;;;;;4979484;28;20053;-63
2023/07/16 01:33:42;;;;;;;2.20;1.50;;;28.50;49.40;;;;;;4962851;28;20079;-63
2023/07/16 01:36:09;;;;;;;2.10;1.60;;;28.50;49.40;;;;;;4976708;28;20706;-63
2023/07/16 01:38:35;;;;;;;2.53;1.73;;;28.50;49.90;;;;;;4979344;28;20105;-63
2023/07/16 01:41:01;;;;;;;2.20;1.65;;;28.50;49.40;;;;;;4978877;28;20506;-64
2023/07/16 01:43:27;;;;;;;2.08;1.58;;;28.50;49.40;;;;;;4979029;28;20502;-63
2023/07/16 01:45:53;;;;;;;2.47;1.60;;;28.50;49.40;;;;;;4978167;28;20030;-63
2023/07/16 01:48:30;;;;;;;2.05;1.58;;;28.50;49.40;;;;;;4980126;28;20034;-63
2023/07/16 01:50:56;;;;;;;1.75;1.45;;;28.50;49.90;;;;;;4979414;28;20030;-63
2023/07/16 01:53:21;;;;;;;2.03;1.52;;;28.50;49.40;;;;;;4960932;28;20034;-63
2023/07/16 01:55:47;;;;;;;1.80;1.40;;;28.50;49.40;;;;;;4968499;28;20035;-63
2023/07/16 01:58:12;;;;;;;2.22;1.58;;;28.50;49.50;;;;;;4977525;28;20386;-63
2023/07/16 02:00:39;;;;;;;1.83;1.50;;;28.50;49.40;;;;;;4979205;28;20022;-63
2023/07/16 02:03:05;;;;;;;2.30;1.50;;;28.50;49.40;;;;;;4981409;28;21011;-63
2023/07/16 02:05:30;;;;;;;1.92;1.40;;;28.50;49.40;;;;;;4960605;28;20113;-64
2023/07/16 02:07:56;;;;;;;1.75;1.50;;;28.50;49.40;;;;;;4976658;28;20062;-64
2023/07/16 02:10:22;;;;;;;1.95;1.40;;;28.40;49.40;;;;;;4978781;28;20030;-64
2023/07/16 02:12:47;;;;;;;2.00;1.58;;;28.50;49.50;;;;;;4977191;28;20034;-63
2023/07/16 02:15:13;;;;;;;1.83;1.23;;;28.50;49.40;;;;;;4980548;28;20077;-63
2023/07/16 02:17:38;;;;;;;1.80;1.30;;;28.40;49.40;;;;;;4978233;28;20026;-63
2023/07/16 02:20:05;;;;;;;2.30;1.60;;;28.50;49.50;;;;;;4978885;28;20514;-64
2023/07/16 02:22:31;;;;;;;2.00;1.38;;;28.40;49.40;;;;;;4976800;28;20121;-64
2023/07/16 02:24:57;;;;;;;1.85;1.50;;;28.40;49.40;;;;;;4980033;28;20141;-63
2023/07/16 02:27:22;;;;;;;1.92;1.40;;;28.40;49.40;;;;;;4977063;28;20035;-63
2023/07/16 02:29:48;;;;;;;2.10;1.40;;;28.40;49.40;;;;;;4977794;28;20034;-63
2023/07/16 02:32:14;;;;;;;2.05;1.38;;;28.40;49.40;;;;;;4979309;28;20114;-63
2023/07/16 02:34:40;;;;;;;1.95;1.40;;;28.40;49.40;;;;;;4979745;28;20022;-63
2023/07/16 02:37:05;;;;;;;1.80;1.33;;;28.40;49.50;;;;;;4978364;28;20030;-64
2023/07/16 02:39:31;;;;;;;1.85;1.45;;;28.40;49.50;;;;;;4978235;28;20030;-64
2023/07/16 02:41:56;;;;;;;1.63;1.30;;;28.40;49.50;;;;;;4977261;28;20113;-63
2023/07/16 02:44:22;;;;;;;2.05;1.50;;;28.40;49.50;;;;;;4976935;28;20514;-64
2023/07/16 02:46:48;;;;;;;1.73;1.30;;;28.40;49.50;;;;;;4979196;28;20037;-63
2023/07/16 02:49:13;;;;;;;1.63;1.30;;;28.40;49.50;;;;;;4978161;28;20034;-63
2023/07/16 02:51:39;;;;;;;1.75;1.25;;;28.40;49.50;;;;;;4979424;28;20382;-64
2023/07/16 02:54:04;;;;;;;1.80;1.35;;;28.40;49.50;;;;;;4977310;28;20097;-63
2023/07/16 02:56:30;;;;;;;1.88;1.35;;;28.40;49.50;;;;;;4975884;28;20795;-64
2023/07/16 02:58:56;;;;;;;2.15;1.60;;;28.30;49.40;;;;;;4976552;28;20084;-63
2023/07/16 03:01:21;;;;;;;2.30;1.55;;;28.40;49.50;;;;;;4962024;28;20110;-63
2023/07/16 03:03:47;;;;;;;1.80;1.40;;;28.40;49.50;;;;;;4978141;28;20407;-63
2023/07/16 03:06:13;;;;;;;1.80;1.40;;;28.40;49.50;;;;;;4977560;28;20088;-63
2023/07/16 03:08:38;;;;;;;1.63;1.30;;;28.40;49.50;;;;;;4977843;28;20511;-62
2023/07/16 03:11:04;;;;;;;1.55;1.27;;;28.40;49.50;;;;;;4977818;28;20416;-65
2023/07/16 03:13:29;;;;;;;1.60;1.38;;;28.40;49.50;;;;;;4962762;28;20118;-62
2023/07/16 03:15:55;;;;;;;1.77;1.30;;;28.40;49.50;;;;;;4977170;28;20109;-63
2023/07/16 03:18:21;;;;;;;1.67;1.30;;;28.30;49.50;;;;;;4977857;28;20023;-63
2023/07/16 03:20:46;;;;;;;1.80;1.38;;;28.30;49.40;;;;;;4982197;28;20105;-64
2023/07/16 03:23:12;;;;;;;1.35;1.20;;;28.30;49.50;;;;;;4983167;28;20058;-63
2023/07/16 03:25:37;;;;;;;1.63;1.30;;;28.30;49.50;;;;;;4982247;28;20022;-63
2023/07/16 03:28:03;;;;;;;1.40;1.23;;;28.30;49.50;;;;;;4978743;28;20463;-63
2023/07/16 03:30:31;;;;;;;1.88;1.38;;;28.30;49.50;;;;;;4980895;28;20030;-63
2023/07/16 03:32:56;;;;;;;1.60;1.27;;;28.30;49.50;;;;;;4982643;28;20101;-63
2023/07/16 03:35:22;;;;;;;1.52;1.25;;;28.30;49.50;;;;;;4981483;28;20439;-62
2023/07/16 03:37:48;;;;;;;1.70;1.30;;;28.30;49.40;;;;;;4965699;28;20031;-62
2023/07/16 03:40:14;;;;;;;1.67;1.23;;;28.30;49.50;;;;;;4981463;28;20057;-62
2023/07/16 03:42:40;;;;;;;1.40;1.20;;;28.30;49.50;;;;;;4982877;28;20033;-63
2023/07/16 03:45:06;;;;;;;1.95;1.35;;;28.30;49.50;;;;;;4965698;28;20030;-63
2023/07/16 03:47:32;;;;;;;1.88;1.25;;;28.30;49.50;;;;;;4982453;28;20026;-63
2023/07/16 03:49:57;;;;;;;1.80;1.30;;;28.30;49.50;;;;;;4980663;28;20030;-63
2023/07/16 03:52:24;;;;;;;1.55;1.20;;;28.30;49.50;;;;;;4980768;28;20059;-63
2023/07/16 03:54:50;;;;;;;1.40;1.20;;;28.30;49.50;;;;;;4979617;28;20027;-62
2023/07/16 03:57:16;;;;;;;1.63;1.25;;;28.30;49.50;;;;;;4979520;28;20108;-62
2023/07/16 03:59:42;;;;;;;1.30;1.20;;;28.30;49.50;;;;;;4979799;28;20035;-63
2023/07/16 04:02:08;;;;;;;1.50;1.30;;;28.30;49.50;;;;;;4981169;28;20391;-63
2023/07/16 04:04:34;;;;;;;1.42;1.20;;;28.30;49.50;;;;;;4981713;28;20358;-63
2023/07/16 04:07:00;;;;;;;1.50;1.23;;;28.30;50.00;;;;;;4980119;28;20109;-63
2023/07/16 04:09:25;;;;;;;1.90;1.25;;;28.30;50.00;;;;;;4980747;28;20027;-64
2023/07/16 04:11:51;;;;;;;1.77;1.38;;;28.30;49.50;;;;;;4980560;28;20081;-63
2023/07/16 04:14:17;;;;;;;1.75;1.30;;;28.30;49.50;;;;;;4981105;28;20899;-63
2023/07/16 04:16:42;;;;;;;1.65;1.30;;;28.30;49.50;;;;;;4980045;28;20538;-63
2023/07/16 04:19:09;;;;;;;1.60;1.23;;;28.30;49.50;;;;;;4982281;28;20110;-63
2023/07/16 04:21:35;;;;;;;1.60;1.30;;;28.30;49.50;;;;;;4979003;28;20145;-64
2023/07/16 04:24:02;;;;;;;1.35;1.10;;;28.30;49.60;;;;;;4980544;28;20027;-63
2023/07/16 04:26:27;;;;;;;1.70;1.30;;;28.20;49.50;;;;;;4979251;28;20029;-63
2023/07/16 04:28:53;;;;;;;1.40;1.20;;;28.20;49.50;;;;;;4979236;28;20482;-63
2023/07/16 04:31:18;;;;;;;1.48;1.15;;;28.20;49.50;;;;;;4980736;28;20046;-63
2023/07/16 04:33:44;;;;;;;1.23;1.00;;;28.20;49.50;;;;;;4982043;28;20049;-63
2023/07/16 04:36:09;;;;;;;1.40;1.20;;;28.20;49.50;;;;;;4980105;28;20041;-64
2023/07/16 04:38:35;;;;;;;1.30;1.20;;;28.20;49.50;;;;;;4980125;28;20738;-63
2023/07/16 04:41:02;;;;;;;1.73;1.10;;;28.20;49.50;;;;;;4979694;28;20031;-64
2023/07/16 04:43:27;;;;;;;1.85;1.33;;;28.20;49.50;;;;;;4978765;28;20030;-63
2023/07/16 04:45:53;;;;;;;1.42;1.25;;;28.20;49.50;;;;;;4978512;28;20041;-63
2023/07/16 04:48:18;;;;;;;1.45;1.13;;;28.20;49.50;;;;;;4980762;28;20037;-64
2023/07/16 04:50:44;;;;;;;1.65;1.30;;;28.20;49.50;;;;;;4980872;28;20749;-63
2023/07/16 04:53:10;;;;;;;1.70;1.20;;;28.20;49.50;;;;;;4980212;28;20046;-63
2023/07/16 04:55:39;;;;;;;1.67;1.20;;;28.20;49.50;;;;;;4970519;28;20049;-63
2023/07/16 04:58:05;;;;;;;1.90;1.20;;;28.20;49.50;;;;;;4974514;28;20355;-63
2023/07/16 05:00:33;;;;;;;1.65;1.20;;;28.20;49.50;;;;;;4980067;28;20487;-63
2023/07/16 05:02:58;;;;;;;1.23;1.13;;;28.20;49.50;;;;;;4978577;28;20128;-64
2023/07/16 05:05:24;;;;;;;1.65;1.20;;;28.20;49.50;;;;;;4980029;28;20129;-63
2023/07/16 05:07:50;;;;;;;1.40;1.15;;;28.20;49.50;;;;;;4979037;28;20114;-63
2023/07/16 05:10:15;;;;;;;1.15;1.00;;;28.20;49.50;;;;;;4981508;28;20033;-64
2023/07/16 05:12:41;;;;;;;1.65;1.10;;;28.20;49.50;;;;;;4977523;28;20035;-64
2023/07/16 05:15:07;;;;;;;1.45;1.15;;;28.20;49.50;;;;;;4979316;28;20572;-63
2023/07/16 05:17:33;;;;;;;1.30;1.10;;;28.20;49.50;;;;;;4979586;28;20065;-63
2023/07/16 05:19:58;;;;;;;1.50;1.15;;;28.20;50.10;;;;;;4963860;28;20035;-63
2023/07/16 05:22:24;;;;;;;1.50;1.10;;;28.20;49.50;;;;;;4981351;28;20031;-63
2023/07/16 05:24:50;;;;;;;2.10;1.10;;;28.20;49.50;;;;;;4981464;28;20034;-63
2023/07/16 05:27:15;;;;;;;1.58;1.25;;;28.20;49.50;;;;;;4978063;28;20081;-63
2023/07/16 05:29:41;;;;;;;1.00;0.90;;;28.20;49.60;;;;;;4979576;28;20509;-63
2023/07/16 05:32:07;;;;;;;1.30;1.10;;;28.10;49.50;;;;;;4979900;28;20051;-64
2023/07/16 05:34:33;;;;;;;1.50;1.10;;;28.10;49.50;;;;;;4979279;28;20474;-63
2023/07/16 05:36:59;;;;;;;1.65;1.15;;;28.10;49.50;;;;;;4977688;28;20419;-63
2023/07/16 05:39:25;;;;;;;1.27;1.10;;;28.10;49.50;;;;;;4979711;28;20101;-63
2023/07/16 05:41:50;;;;;;;1.48;1.08;;;28.10;49.50;;;;;;4978866;28;20033;-63
2023/07/16 05:44:16;;;;;;;1.42;1.10;;;28.10;49.50;;;;;;4978383;28;20034;-63
2023/07/16 05:46:42;;;;;;;1.45;1.10;;;28.10;49.50;;;;;;4960313;28;20039;-63
2023/07/16 05:49:07;;;;;;;1.85;1.40;;;28.10;49.50;;;;;;4979982;28;20022;-63
2023/07/16 05:51:33;;;;;;;1.02;0.90;;;28.10;49.50;;;;;;4980306;28;20208;-63
2023/07/16 05:53:58;;;;;;;1.30;1.10;;;28.10;49.50;;;;;;4982043;28;20354;-63
2023/07/16 05:56:24;;;;;;;1.50;1.10;;;28.10;49.50;;;;;;4976207;28;20042;-63
2023/07/16 05:58:50;;;;;;;1.65;1.20;;;28.10;49.50;;;;;;4977555;28;20057;-63
2023/07/16 06:01:15;;;;;;;1.20;1.05;;;28.10;49.50;;;;;;4978264;28;20061;-63
2023/07/16 06:03:41;;;;;;;1.17;1.00;;;28.10;49.50;;;;;;4962301;28;20108;-63
2023/07/16 06:06:09;;;;;;;1.33;1.10;;;28.10;49.50;;;;;;4977882;28;20030;-63
2023/07/16 06:08:35;;;;;;;1.00;0.90;;;28.10;49.40;;;;;;4978452;28;20035;-63
2023/07/16 06:11:00;;;;;;;1.23;1.08;;;28.10;49.40;;;;;;4968059;28;20061;-63
2023/07/16 06:13:26;;;;;;;1.30;1.05;;;28.10;49.40;;;;;;4977634;28;20082;-63
2023/07/16 06:15:52;;;;;;;1.60;1.10;;;28.10;49.40;;;;;;4979965;28;20042;-64
2023/07/16 06:18:17;;;;;;;1.05;0.90;;;28.10;49.40;;;;;;4975834;28;20026;-63
2023/07/16 06:20:44;;;;;;;1.52;1.15;;;28.10;49.40;;;;;;4977647;28;20070;-63
2023/07/16 06:23:11;;;;;;;1.15;1.05;;;28.10;49.40;;;;;;4977723;28;20062;-63
2023/07/16 06:25:36;;;;;;;1.23;1.02;;;28.10;49.40;;;;;;4978231;28;20049;-63
2023/07/16 06:28:02;;;;;;;1.50;1.05;;;28.10;49.40;;;;;;4960549;28;20031;-63
2023/07/16 06:30:28;;;;;;;1.35;1.00;;;28.10;49.40;;;;;;4963379;28;20366;-63
2023/07/16 06:32:54;;;;;;;1.63;1.20;;;28.10;49.40;;;;;;4979008;28;20034;-63
2023/07/16 06:35:19;;;;;;;1.05;0.95;;;28.10;49.40;;;;;;4979835;28;20775;-63
2023/07/16 06:37:47;;;;;;;1.00;0.90;;;28.10;49.40;;;;;;4978462;28;20085;-63
2023/07/16 06:40:12;;;;;;;1.27;1.00;;;28.00;49.30;;;;;;4977991;28;20055;-63
2023/07/16 06:42:38;;;;;;;1.13;1.00;;;28.00;49.30;;;;;;4976873;28;20070;-63
2023/07/16 06:45:05;;;;;;;1.17;1.08;;;28.00;49.30;;;;;;4975786;28;20078;-63
2023/07/16 06:47:31;;;;;;;1.20;1.10;;;28.00;49.30;;;;;;4980306;28;20027;-63
2023/07/16 06:49:57;;;;;;;1.30;1.05;;;28.00;49.80;;;;;;4976800;28;20034;-63
2023/07/16 06:52:27;;;;;;;1.27;0.95;;;28.00;49.30;;;;;;4977244;28;20618;-64
2023/07/16 06:54:55;;;;;;;1.00;0.90;;;28.00;49.30;;;;;;4979873;28;20030;-63
2023/07/16 06:57:21;;;;;;;1.10;1.00;;;28.00;49.30;;;;;;4980753;28;20055;-63
2023/07/16 06:59:47;;;;;;;0.80;0.80;;;28.00;49.30;;;;;;4977856;28;20093;-63
2023/07/16 07:02:13;;;;;;;0.93;0.90;;;28.00;49.30;;;;;;4981691;28;20026;-64
2023/07/16 07:04:38;;;;;;;1.05;0.82;;;28.10;49.30;;;;;;4981812;28;20022;-63
2023/07/16 07:07:04;;;;;;;1.40;1.00;;;28.00;49.80;;;;;;4980810;28;20035;-63
2023/07/16 07:09:30;;;;;;;1.25;1.10;;;28.00;49.30;;;;;;4981848;28;20494;-63
2023/07/16 07:11:56;;;;;;;1.00;0.90;;;28.00;49.30;;;;;;4983477;28;20105;-63
2023/07/16 07:14:21;;;;;;;1.45;0.95;;;28.00;49.20;;;;;;4979846;28;20027;-63
2023/07/16 07:16:47;;;;;;;1.20;1.08;;;28.00;49.30;;;;;;4963820;28;20177;-64
2023/07/16 07:19:12;;;;;;;1.40;1.00;;;28.00;49.30;;;;;;4980590;28;20364;-63
2023/07/16 07:21:38;;;;;;;1.05;0.90;;;28.00;49.30;;;;;;4982776;28;20023;-62
2023/07/16 07:24:04;;;;;;;1.00;0.90;;;28.00;49.20;;;;;;4981187;28;20118;-63
2023/07/16 07:26:29;;;;;;;1.00;0.85;;;28.00;49.20;;;;;;4980372;28;20439;-67
2023/07/16 07:28:55;;;;;;;0.90;0.80;;;28.00;49.20;;;;;;4980427;28;20070;-67
2023/07/16 07:31:21;;;;;;;1.45;1.08;;;28.00;49.20;;;;;;4980253;28;20038;-67
2023/07/16 07:33:46;;;;;;;1.20;1.00;;;28.00;49.20;;;;;;4980752;28;20109;-67
2023/07/16 07:36:12;;;;;;;1.50;1.05;;;28.00;49.20;;;;;;4981430;28;20034;-67
2023/07/16 07:38:37;;;;;;;1.23;0.95;;;28.00;49.20;;;;;;4980133;28;20030;-67
2023/07/16 07:41:05;;;;;;;1.13;0.82;;;28.00;49.20;;;;;;4980619;28;20074;-67
2023/07/16 07:43:31;;;;;;;1.52;1.00;;;28.00;49.20;;;;;;4979865;28;20039;-67
2023/07/16 07:45:57;;;;;;;0.90;0.80;;;28.00;49.20;;;;;;4982226;28;20030;-67
2023/07/16 07:48:22;;;;;;;1.25;0.95;;;28.00;49.20;;;;;;4979360;28;20030;-67
2023/07/16 07:50:48;;;;;;;1.10;1.00;;;28.00;49.20;;;;;;4983935;28;20035;-67
2023/07/16 07:53:20;;;;;;;1.23;0.98;;;28.00;49.20;;;;;;4982066;28;20130;-67
2023/07/16 07:55:46;;;;;;;0.98;0.88;;;28.00;49.20;;;;;;4980647;28;20042;-67
2023/07/16 07:58:12;;;;;;;1.13;0.85;;;28.00;49.20;;;;;;4979153;28;20027;-66
2023/07/16 08:00:38;;;;;;;1.58;1.02;;;28.00;49.20;;;;;;4959862;28;20520;-68
2023/07/16 08:03:04;;;;;;;1.20;0.98;;;28.00;49.20;;;;;;4971301;28;20062;-67
2023/07/16 08:05:29;;;;;;;1.27;0.95;;;27.90;49.10;;;;;;4978741;28;20399;-67
2023/07/16 08:07:55;;;;;;;1.05;0.80;;;27.90;49.10;;;;;;4962973;28;20027;-67
2023/07/16 08:10:21;;;;;;;1.00;0.82;;;27.90;49.10;;;;;;4983059;28;20645;-67
2023/07/16 08:12:47;;;;;;;1.00;0.90;;;27.90;49.10;;;;;;4982198;28;20117;-67
2023/07/16 08:15:14;;;;;;;0.85;0.82;;;27.90;49.10;;;;;;4980066;28;20110;-67
2023/07/16 08:17:44;;;;;;;1.50;1.00;;;27.90;49.10;;;;;;4979153;28;20022;-67
2023/07/16 08:20:11;;;;;;;0.70;0.70;;;27.90;49.10;;;;;;4971255;28;20026;-67
2023/07/16 08:22:37;;;;;;;1.13;1.00;;;27.90;49.10;;;;;;4965547;28;20569;-67
2023/07/16 08:25:03;;;;;;;1.40;1.00;;;27.90;49.10;;;;;;4980906;28;20487;-67
2023/07/16 08:27:29;;;;;;;1.13;0.95;;;27.90;49.10;;;;;;4964717;28;20031;-67
2023/07/16 08:29:55;;;;;;;0.80;0.80;;;27.90;49.10;;;;;;4979973;28;20031;-67
2023/07/16 08:32:21;;;;;;;0.88;0.80;;;27.90;49.10;;;;;;4963490;28;20764;-67
2023/07/16 08:34:47;;;;;;;1.00;0.90;;;27.90;49.10;;;;;;4971362;28;20037;-67
2023/07/16 08:37:13;;;;;;;1.00;0.90;;;27.90;49.10;;;;;;4980284;28;20034;-67
2023/07/16 08:39:39;;;;;;;1.10;0.82;;;27.90;49.10;;;;;;4979961;28;20027;-67
2023/07/16 08:42:05;;;;;;;0.80;0.80;;;27.90;49.10;;;;;;4979812;28;20057;-67
2023/07/16 08:44:32;;;;;;;1.00;0.85;;;27.90;49.10;;;;;;4977519;28;20076;-67
2023/07/16 08:46:58;;;;;;;0.98;0.88;;;27.90;49.10;;;;;;4979510;28;20030;-67
2023/07/16 08:49:29;;;;;;;0.95;0.80;;;27.90;49.10;;;;;;4978064;28;20038;-67
2023/07/16 08:51:56;;;;;;;1.55;0.80;;;27.90;49.10;;;;;;4977974;28;20454;-67
2023/07/16 08:54:22;;;;;;;1.17;1.00;;;27.90;49.10;;;;;;4978753;28;20506;-67
2023/07/16 08:56:48;;;;;;;1.20;0.93;;;27.90;49.10;;;;;;4980849;28;20141;-67
2023/07/16 08:59:17;;;;;;;1.10;0.90;;;27.80;49.00;;;;;;4978901;28;20513;-67
2023/07/16 09:01:43;;;;;;;0.85;0.80;;;27.90;49.10;;;;;;4979725;28;20163;-67
2023/07/16 09:04:09;;;;;;;1.17;0.85;;;27.80;49.00;;;;;;4970200;28;20031;-67
2023/07/16 09:06:34;;;;;;;1.50;0.90;;;27.90;49.10;;;;;;4962966;28;20038;-67
2023/07/16 09:09:00;;;;;;;1.30;1.05;;;27.80;49.00;;;;;;4979506;28;20482;-67
2023/07/16 09:11:27;;;;;;;1.10;1.00;;;27.80;49.00;;;;;;4979997;28;20380;-67
2023/07/16 09:13:52;;;;;;;1.00;0.80;;;27.90;49.10;;;;;;4981203;28;20537;-67
2023/07/16 09:16:19;;;;;;;1.38;0.90;;;27.90;49.10;;;;;;4979049;28;20109;-67
2023/07/16 09:18:45;;;;;;;0.88;0.75;;;27.80;49.00;;;;;;4979798;28;20494;-67
2023/07/16 09:21:11;;;;;;;1.35;0.90;;;27.80;49.00;;;;;;4980571;28;20045;-67
2023/07/16 09:23:37;;;;;;;1.77;1.20;;;27.90;49.10;;;;;;4978664;28;20037;-67
2023/07/16 09:26:03;;;;;;;1.27;0.90;;;27.80;49.10;;;;;;4978253;28;20098;-67
2023/07/16 09:28:31;;;;;;;0.85;0.80;;;27.80;49.10;;;;;;4980646;28;20089;-67
2023/07/16 09:31:04;;;;;;;1.08;0.82;;;27.80;49.10;;;;;;4977468;28;20043;-67
2023/07/16 09:33:31;;;;;;;1.50;0.90;;;27.80;49.10;;;;;;4978040;28;20038;-67
2023/07/16 09:35:57;;;;;;;1.17;0.82;;;27.80;49.10;;;;;;4979718;28;20372;-67
2023/07/16 09:38:24;;;;;;;1.77;0.95;;;27.80;49.10;;;;;;4979747;28;20089;-68
2023/07/16 09:40:52;;;;;;;1.60;1.00;;;27.80;49.10;;;;;;4978603;28;20137;-67
2023/07/16 09:43:18;;;;;;;1.42;1.00;;;27.80;49.10;;;;;;4978766;28;20649;-67
2023/07/16 09:45:43;;;;;;;1.77;1.00;;;27.80;49.10;;;;;;4977803;28;20026;-67
2023/07/16 09:48:09;;;;;;;1.35;0.90;;;27.80;49.10;;;;;;4963628;28;20042;-67
2023/07/16 09:50:36;;;;;;;1.33;0.90;;;27.80;49.10;;;;;;4979273;28;20525;-67
2023/07/16 09:53:05;;;;;;;1.30;0.93;;;27.80;49.20;;;;;;4976675;28;20129;-67
2023/07/16 09:55:35;;;;;;;1.60;1.10;;;27.80;49.10;;;;;;4981361;28;20383;-68
2023/07/16 09:58:05;;;;;;;1.38;0.98;;;27.80;49.10;;;;;;4979967;28;20041;-67
2023/07/16 10:00:34;;;;;;;1.50;1.00;;;27.80;49.10;;;;;;4978214;28;20026;-67
2023/07/16 10:03:00;;;;;;;1.92;0.98;;;27.80;49.10;;;;;;4978258;28;20431;-67
2023/07/16 10:05:27;;;;;;;1.50;1.00;;;27.80;49.10;;;;;;4979208;28;20070;-67
2023/07/16 10:07:59;;;;;;;1.15;0.90;;;27.80;49.10;;;;;;4969676;28;20120;-67
2023/07/16 10:10:40;;;;;;;1.17;1.02;;;27.80;49.10;;;;;;4980352;28;20033;-67
2023/07/16 10:13:07;;;;;;;1.85;1.10;;;27.80;49.10;;;;;;4977587;28;20506;-67
2023/07/16 10:15:33;;;;;;;1.63;1.00;;;27.80;49.10;;;;;;4964265;28;20026;-67
2023/07/16 10:17:59;;;;;;;1.63;0.90;;;27.70;49.10;;;;;;4979538;28;20026;-67
2023/07/16 10:20:42;;;;;;;1.63;1.00;;;27.80;49.10;;;;;;4977312;28;20023;-67
2023/07/16 10:23:15;;;;;;;1.73;1.00;;;27.70;49.10;;;;;;4969402;28;20067;-67
2023/07/16 10:26:05;;;;;;;0.98;0.80;;;27.70;49.10;;;;;;4978741;28;20042;-67
2023/07/16 10:28:32;;;;;;;0.82;0.75;;;27.70;49.10;;;;;;4979705;28;20026;-67
2023/07/16 10:30:58;;;;;;;1.20;1.00;;;27.70;49.10;;;;;;4979682;28;20080;-67
2023/07/16 10:33:23;;;;;;;1.23;0.80;;;27.70;49.10;;;;;;4981092;28;20054;-67
2023/07/16 10:35:49;;;;;;;0.93;0.82;;;27.70;49.10;;;;;;4983476;28;20398;-67
2023/07/16 10:38:15;;;;;;;1.10;0.90;;;27.70;49.10;;;;;;4982346;28;20105;-67
2023/07/16 10:40:44;;;;;;;1.20;0.90;;;27.70;49.70;;;;;;4983165;28;20103;-67
2023/07/16 10:43:11;;;;;;;1.33;1.00;;;27.70;49.20;;;;;;4970554;28;20068;-67
2023/07/16 10:45:37;;;;;;;1.45;0.90;;;27.70;49.20;;;;;;4983014;28;20031;-67
2023/07/16 10:48:03;;;;;;;1.35;0.90;;;27.70;49.20;;;;;;4982187;28;20110;-67
2023/07/16 10:50:33;;;;;;;1.00;0.90;;;27.70;49.20;;;;;;4982427;28;20030;-67
2023/07/16 10:52:58;;;;;;;1.33;0.95;;;27.70;49.20;;;;;;4981402;28;20348;-67
2023/07/16 10:55:27;;;;;;;0.90;0.80;;;27.70;49.20;;;;;;4982282;28;20046;-66
2023/07/16 10:57:53;;;;;;;1.10;0.90;;;27.70;49.20;;;;;;4972145;28;20030;-67
2023/07/16 11:00:20;;;;;;;1.42;1.00;;;27.70;49.20;;;;;;4978266;28;20118;-67
2023/07/16 11:02:47;;;;;;;1.25;0.90;;;27.70;49.20;;;;;;4980769;28;20105;-67
2023/07/16 11:05:16;;;;;;;1.05;0.80;;;27.70;49.20;;;;;;4965744;28;20511;-67
2023/07/16 11:07:46;;;;;;;1.20;0.88;;;27.70;49.20;;;;;;4982101;28;20108;-67
2023/07/16 11:10:12;;;;;;;2.30;1.02;;;27.70;49.20;;;;;;4981985;28;20038;-67
2023/07/16 11:12:38;;;;;;;0.98;0.82;;;27.70;49.20;;;;;;4980198;28;20502;-67
2023/07/16 11:15:04;;;;;;;1.50;0.88;;;27.70;49.20;;;;;;4979086;28;20034;-67
2023/07/16 11:17:30;;;;;;;1.88;1.05;;;27.70;49.20;;;;;;4981477;28;20502;-67
2023/07/16 11:19:56;;;;;;;1.25;0.90;;;27.70;49.20;;;;;;4982697;28;20018;-67
2023/07/16 11:22:27;;;;;;;1.75;1.00;;;27.70;49.30;;;;;;4982106;28;20050;-67
2023/07/16 11:24:54;;;;;;;1.08;0.82;;;27.70;49.30;;;;;;4978410;28;20145;-67
2023/07/16 11:27:28;;;;;;;1.25;0.98;;;27.70;49.30;;;;;;4966592;28;20439;-67
2023/07/16 11:29:59;;;;;;;1.23;0.90;;;27.70;49.40;;;;;;4963053;28;20026;-68
2023/07/16 11:32:35;;;;;;;1.50;0.88;;;27.70;49.50;;;;;;4982360;28;20031;-67
2023/07/16 11:35:06;;;;;;;1.60;0.90;;;27.70;49.50;;;;;;4981987;28;20514;-67
2023/07/16 11:37:33;;;;;;;1.40;0.98;;;27.70;49.50;;;;;;4972880;28;20415;-68
2023/07/16 11:40:03;;;;;;;1.40;0.90;;;27.70;49.50;;;;;;4980776;28;20525;-67
2023/07/16 11:42:34;;;;;;;1.25;0.85;;;27.70;49.50;;;;;;4981412;28;20431;-67
2023/07/16 11:45:01;;;;;;;1.23;0.80;;;27.70;49.50;;;;;;4980950;28;20023;-67
2023/07/16 11:47:27;;;;;;;1.00;0.90;;;27.70;49.50;;;;;;4979041;28;20031;-67
2023/07/16 11:49:53;;;;;;;1.38;0.90;;;27.70;49.50;;;;;;4965020;28;20479;-66
2023/07/16 11:52:27;;;;;;;1.40;0.98;;;27.70;49.50;;;;;;4982452;28;20027;-67
2023/07/16 11:54:54;;;;;;;1.50;1.00;;;27.70;49.50;;;;;;4982458;28;20124;-67
2023/07/16 11:57:20;;;;;;;0.73;0.70;;;27.70;50.00;;;;;;4980264;28;20030;-67
2023/07/16 11:59:45;;;;;;;1.50;0.82;;;27.70;49.50;;;;;;4980609;28;20027;-67
2023/07/16 12:02:12;;;;;;;1.63;0.95;;;27.70;49.50;;;;;;4979901;28;20031;-67
2023/07/16 12:04:37;;;;;;;1.10;0.90;;;27.70;49.50;;;;;;4981920;28;20030;-67
2023/07/16 12:07:03;;;;;;;1.20;0.90;;;27.70;50.00;;;;;;4980041;28;20485;-67
2023/07/16 12:09:29;;;;;;;1.40;0.90;;;27.70;49.50;;;;;;4977999;28;20411;-67
2023/07/16 12:11:54;;;;;;;1.35;0.95;;;27.70;49.50;;;;;;4981377;28;20027;-67
2023/07/16 12:14:20;;;;;;;1.75;0.90;;;27.70;49.50;;;;;;4980626;28;20038;-67
2023/07/16 12:16:46;;;;;;;1.35;0.93;;;27.70;49.50;;;;;;4963421;28;20502;-67
2023/07/16 12:19:11;;;;;;;1.10;0.90;;;27.70;49.50;;;;;;4980072;28;20368;-67
2023/07/16 12:21:37;;;;;;;0.90;0.80;;;27.70;49.50;;;;;;4981413;28;20026;-67
2023/07/16 12:24:03;;;;;;;1.00;0.80;;;27.70;49.50;;;;;;4963429;28;20018;-67
2023/07/16 12:26:29;;;;;;;0.95;0.80;;;27.70;49.50;;;;;;4979945;28;20034;-67
2023/07/16 12:28:55;;;;;;;2.05;1.08;;;27.70;49.50;;;;;;4979327;28;20514;-69
2023/07/16 12:31:20;;;;;;;1.10;0.90;;;27.70;49.50;;;;;;4961126;28;20963;-66
2023/07/16 12:33:47;;;;;;;1.55;0.90;;;27.70;49.60;;;;;;4980446;28;20026;-66
2023/07/16 12:36:13;;;;;;;1.27;0.98;;;27.70;49.80;;;;;;4979059;28;20824;-65
2023/07/16 12:38:39;;;;;;;0.75;0.73;;;27.70;49.70;;;;;;4979499;28;20061;-71
2023/07/16 12:41:05;;;;;;;1.13;1.00;;;27.70;49.70;;;;;;4979899;28;20486;-69
2023/07/16 12:43:33;;;;;;;1.00;0.90;;;27.70;49.60;;;;;;4979835;28;20410;-67
2023/07/16 12:46:04;;;;;;;1.20;1.00;;;27.70;49.80;;;;;;4962454;28;20761;-67